Shun Cheng — BBUL — position and weather

sailwx.info

Track history (hours):
 
Tides and Currents Weather Stations Pressure Air Temp Water Temp Dewpoint Dewpoint Depression Visibility Wind Speed Wind Dir Waves Ship Positions

Shun Cheng

Last reported at 2014-Aug-28 00:19 UTC. Time now 2014-Aug-28 07:24 UTC.
Position N 32°13' E 119°54'.

Length 128 m; draft 7.2 m.

Type: Cargo ship. MMSI: 412949000.

Date/timePositionNaut miles runAvg speedWind from/ knotsBaromVisibWave heightAir tempDewpointWater temp
2014-Aug-28 00:19N 32°13' E 119°54'7 8.5
2014-Aug-27 23:33N 32°06' E 119°55'9 8.7
2014-Aug-27 22:32N 31°59' E 120°01'9 9.3
2014-Aug-27 21:33N 31°56' E 120°11'1010.2
2014-Aug-27 20:33N 31°60' E 120°22'1010.2
2014-Aug-27 19:33N 32°03' E 120°33'1111.2
2014-Aug-27 18:33N 32°01' E 120°46'1211.6
2014-Aug-27 17:33N 31°51' E 120°54'9 8.9
2014-Aug-27 16:32N 31°46' E 121°03'1211.8
2014-Aug-27 15:31N 31°39' E 121°14'1111.8
2014-Aug-27 14:33N 31°31' E 121°24'1010.0
2014-Aug-27 13:33N 31°25' E 121°32'9 9.3
2014-Aug-27 12:33N 31°20' E 121°42'93 5.4
2014-Aug-26 19:24N 30°57' E 123°27'1212.4
2014-Aug-26 18:23N 30°58' E 123°41'1012.3
2014-Aug-26 17:33N 30°60' E 123°53'1812.7
2014-Aug-26 16:06N 30°57' E 124°15'  
2014-Aug-24 01:17N 34°16' E 138°16'5212.5
2014-Aug-23 21:08N 34°44' E 139°10'1211.9
2014-Aug-23 20:07N 34°51' E 139°21'611.2
2014-Aug-23 19:33N 34°56' E 139°27'33 2.0
2014-Aug-23 03:33N 35°27' E 139°40'0 0.0
2014-Aug-23 02:33N 35°27' E 139°40'0 0.0
2014-Aug-23 01:33N 35°27' E 139°40'2 1.8
2014-Aug-23 00:34N 35°26' E 139°42'8 7.9
2014-Aug-22 23:33N 35°18' E 139°44'1110.7
2014-Aug-22 22:34N 35°08' E 139°46'1111.5
2014-Aug-22 21:33N 34°60' E 139°35'1413.5
2014-Aug-22 20:33N 34°51' E 139°23'225 6.4
2014-Aug-21 09:26N 33°55' E 134°59'1111.5
2014-Aug-21 08:31N 34°05' E 134°59'1211.7
2014-Aug-21 07:32N 34°17' E 134°58'1110.7
2014-Aug-21 06:33N 34°26' E 135°05'1212.1
2014-Aug-21 05:33N 34°34' E 135°16'6 5.9
2014-Aug-21 04:33N 34°40' E 135°14'0 0.0
2014-Aug-21 03:33N 34°40' E 135°14'0 0.0
2014-Aug-21 02:33N 34°40' E 135°14'0 0.0
2014-Aug-21 01:33N 34°40' E 135°14'0 0.0
2014-Aug-21 00:33N 34°40' E 135°14'3 2.6
2014-Aug-20 23:33N 34°38' E 135°17'0 0.1
2014-Aug-20 22:33N 34°38' E 135°17'0 0.1
2014-Aug-20 21:33N 34°38' E 135°17'0 0.0
2014-Aug-20 20:33N 34°38' E 135°17'0 0.0
2014-Aug-20 19:33N 34°38' E 135°17'0 0.0
2014-Aug-20 18:33N 34°38' E 135°17'0 0.0
2014-Aug-20 17:33N 34°38' E 135°17'0 0.0
2014-Aug-20 16:33N 34°38' E 135°17'0 0.0
2014-Aug-20 15:33N 34°38' E 135°17'0 0.1
2014-Aug-20 14:33N 34°38' E 135°17'0 0.0
2014-Aug-20 13:33N 34°38' E 135°17'2 1.7
2014-Aug-20 12:33N 34°37' E 135°18'6 5.8
2014-Aug-20 11:29N 34°39' E 135°26'0 0.0
2014-Aug-20 10:29N 34°39' E 135°26'0 0.0
2014-Aug-20 09:31N 34°39' E 135°26'2 1.9
2014-Aug-20 08:33N 34°38' E 135°24'8 8.2
2014-Aug-20 07:33N 34°33' E 135°16'1111.3
2014-Aug-20 06:33N 34°25' E 135°06'1110.9
2014-Aug-20 05:33N 34°16' E 134°59'1211.7
2014-Aug-20 04:33N 34°04' E 134°59'  
Track history (hours):
 
Tides and Currents Weather Stations Pressure Air Temp Water Temp Dewpoint Dewpoint Depression Visibility Wind Speed Wind Dir Waves Ship Positions

Shun Cheng

Last reported at 2014-Aug-28 00:19 UTC. Time now 2014-Aug-28 07:24 UTC.
Position N 32°13' E 119°54'.

Length 128 m; draft 7.2 m.

Type: Cargo ship. MMSI: 412949000.

Date/timePositionNaut miles runAvg speedWind from/ knotsBaromVisibWave heightAir tempDewpointWater temp
2014-Aug-28 00:19N 32°13' E 119°54'7 8.5
2014-Aug-27 23:33N 32°06' E 119°55'9 8.7
2014-Aug-27 22:32N 31°59' E 120°01'9 9.3
2014-Aug-27 21:33N 31°56' E 120°11'1010.2
2014-Aug-27 20:33N 31°60' E 120°22'1010.2
2014-Aug-27 19:33N 32°03' E 120°33'1111.2
2014-Aug-27 18:33N 32°01' E 120°46'1211.6
2014-Aug-27 17:33N 31°51' E 120°54'9 8.9
2014-Aug-27 16:32N 31°46' E 121°03'1211.8
2014-Aug-27 15:31N 31°39' E 121°14'1111.8
2014-Aug-27 14:33N 31°31' E 121°24'1010.0
2014-Aug-27 13:33N 31°25' E 121°32'9 9.3
2014-Aug-27 12:33N 31°20' E 121°42'93 5.4
2014-Aug-26 19:24N 30°57' E 123°27'1212.4
2014-Aug-26 18:23N 30°58' E 123°41'1012.3
2014-Aug-26 17:33N 30°60' E 123°53'1812.7
2014-Aug-26 16:06N 30°57' E 124°15'  
2014-Aug-24 01:17N 34°16' E 138°16'5212.5
2014-Aug-23 21:08N 34°44' E 139°10'1211.9
2014-Aug-23 20:07N 34°51' E 139°21'611.2
2014-Aug-23 19:33N 34°56' E 139°27'33 2.0
2014-Aug-23 03:33N 35°27' E 139°40'0 0.0
2014-Aug-23 02:33N 35°27' E 139°40'0 0.0
2014-Aug-23 01:33N 35°27' E 139°40'2 1.8
2014-Aug-23 00:34N 35°26' E 139°42'8 7.9
2014-Aug-22 23:33N 35°18' E 139°44'1110.7
2014-Aug-22 22:34N 35°08' E 139°46'1111.5
2014-Aug-22 21:33N 34°60' E 139°35'1413.5
2014-Aug-22 20:33N 34°51' E 139°23'225 6.4
2014-Aug-21 09:26N 33°55' E 134°59'1111.5
2014-Aug-21 08:31N 34°05' E 134°59'1211.7
2014-Aug-21 07:32N 34°17' E 134°58'1110.7
2014-Aug-21 06:33N 34°26' E 135°05'1212.1
2014-Aug-21 05:33N 34°34' E 135°16'6 5.9
2014-Aug-21 04:33N 34°40' E 135°14'0 0.0
2014-Aug-21 03:33N 34°40' E 135°14'0 0.0
2014-Aug-21 02:33N 34°40' E 135°14'0 0.0
2014-Aug-21 01:33N 34°40' E 135°14'0 0.0
2014-Aug-21 00:33N 34°40' E 135°14'3 2.6
2014-Aug-20 23:33N 34°38' E 135°17'0 0.1
2014-Aug-20 22:33N 34°38' E 135°17'0 0.1
2014-Aug-20 21:33N 34°38' E 135°17'0 0.0
2014-Aug-20 20:33N 34°38' E 135°17'0 0.0
2014-Aug-20 19:33N 34°38' E 135°17'0 0.0
2014-Aug-20 18:33N 34°38' E 135°17'0 0.0
2014-Aug-20 17:33N 34°38' E 135°17'0 0.0
2014-Aug-20 16:33N 34°38' E 135°17'0 0.0
2014-Aug-20 15:33N 34°38' E 135°17'0 0.1
2014-Aug-20 14:33N 34°38' E 135°17'0 0.0
2014-Aug-20 13:33N 34°38' E 135°17'2 1.7
2014-Aug-20 12:33N 34°37' E 135°18'6 5.8
2014-Aug-20 11:29N 34°39' E 135°26'0 0.0
2014-Aug-20 10:29N 34°39' E 135°26'0 0.0
2014-Aug-20 09:31N 34°39' E 135°26'2 1.9
2014-Aug-20 08:33N 34°38' E 135°24'8 8.2
2014-Aug-20 07:33N 34°33' E 135°16'1111.3
2014-Aug-20 06:33N 34°25' E 135°06'1110.9
2014-Aug-20 05:33N 34°16' E 134°59'1211.7
2014-Aug-20 04:33N 34°04' E 134°59'  

Dump ship's entire track history